sensor_id;sensor_type;location;lat;lon;timestamp;P1;durP1;ratioP1;P2;durP2;ratioP2
13071;SDS011;6602;58.934;11.166;2023-02-12T00:02:37;6.07;;;2.20;;
13071;SDS011;6602;58.934;11.166;2023-02-12T00:07:57;8.80;;;1.97;;
13071;SDS011;6602;58.934;11.166;2023-02-12T00:13:16;10.10;;;2.27;;
13071;SDS011;6602;58.934;11.166;2023-02-12T00:18:36;10.73;;;2.77;;
13071;SDS011;6602;58.934;11.166;2023-02-12T00:23:55;9.97;;;2.07;;
13071;SDS011;6602;58.934;11.166;2023-02-12T00:29:16;9.17;;;2.87;;
13071;SDS011;6602;58.934;11.166;2023-02-12T00:34:35;5.17;;;2.33;;
13071;SDS011;6602;58.934;11.166;2023-02-12T00:39:54;10.53;;;2.73;;
13071;SDS011;6602;58.934;11.166;2023-02-12T00:45:16;11.57;;;2.37;;
13071;SDS011;6602;58.934;11.166;2023-02-12T00:50:37;9.23;;;2.13;;
13071;SDS011;6602;58.934;11.166;2023-02-12T00:56:00;6.70;;;1.93;;
13071;SDS011;6602;58.934;11.166;2023-02-12T01:01:30;9.93;;;2.70;;
13071;SDS011;6602;58.934;11.166;2023-02-12T01:06:50;9.33;;;2.13;;
13071;SDS011;6602;58.934;11.166;2023-02-12T01:17:33;13.23;;;3.00;;
13071;SDS011;6602;58.934;11.166;2023-02-12T01:22:54;13.27;;;3.17;;
13071;SDS011;6602;58.934;11.166;2023-02-12T01:28:14;15.10;;;2.87;;
13071;SDS011;6602;58.934;11.166;2023-02-12T01:33:37;10.77;;;2.43;;
13071;SDS011;6602;58.934;11.166;2023-02-12T01:39:00;7.77;;;1.87;;
13071;SDS011;6602;58.934;11.166;2023-02-12T01:44:21;11.20;;;2.23;;
13071;SDS011;6602;58.934;11.166;2023-02-12T01:49:44;8.00;;;3.20;;
13071;SDS011;6602;58.934;11.166;2023-02-12T01:55:07;15.60;;;2.73;;
13071;SDS011;6602;58.934;11.166;2023-02-12T02:06:00;16.33;;;2.97;;
13071;SDS011;6602;58.934;11.166;2023-02-12T02:11:27;14.07;;;2.80;;
13071;SDS011;6602;58.934;11.166;2023-02-12T02:29:20;7.60;;;1.87;;
13071;SDS011;6602;58.934;11.166;2023-02-12T02:35:20;14.70;;;2.93;;
13071;SDS011;6602;58.934;11.166;2023-02-12T02:40:50;15.43;;;3.10;;
13071;SDS011;6602;58.934;11.166;2023-02-12T02:46:23;14.57;;;3.03;;
13071;SDS011;6602;58.934;11.166;2023-02-12T02:51:59;14.97;;;3.07;;
13071;SDS011;6602;58.934;11.166;2023-02-12T02:57:29;15.80;;;2.77;;
13071;SDS011;6602;58.934;11.166;2023-02-12T03:03:01;18.10;;;2.50;;
13071;SDS011;6602;58.934;11.166;2023-02-12T03:08:33;9.80;;;2.83;;
13071;SDS011;6602;58.934;11.166;2023-02-12T03:13:59;8.80;;;2.83;;
13071;SDS011;6602;58.934;11.166;2023-02-12T03:19:43;14.47;;;2.57;;
13071;SDS011;6602;58.934;11.166;2023-02-12T03:25:08;19.60;;;3.23;;
13071;SDS011;6602;58.934;11.166;2023-02-12T03:31:02;16.80;;;2.90;;
13071;SDS011;6602;58.934;11.166;2023-02-12T03:36:33;11.83;;;2.73;;
13071;SDS011;6602;58.934;11.166;2023-02-12T03:47:53;17.37;;;3.17;;
13071;SDS011;6602;58.934;11.166;2023-02-12T03:53:39;14.73;;;2.63;;
13071;SDS011;6602;58.934;11.166;2023-02-12T03:59:00;12.37;;;2.53;;
13071;SDS011;6602;58.934;11.166;2023-02-12T04:04:20;10.77;;;2.87;;
13071;SDS011;6602;58.934;11.166;2023-02-12T04:09:41;15.03;;;3.70;;
13071;SDS011;6602;58.934;11.166;2023-02-12T04:21:11;12.67;;;2.87;;
13071;SDS011;6602;58.934;11.166;2023-02-12T04:32:43;12.50;;;3.17;;
13071;SDS011;6602;58.934;11.166;2023-02-12T04:43:41;21.50;;;3.30;;
13071;SDS011;6602;58.934;11.166;2023-02-12T04:49:01;17.67;;;4.33;;
13071;SDS011;6602;58.934;11.166;2023-02-12T04:54:22;19.43;;;3.50;;
13071;SDS011;6602;58.934;11.166;2023-02-12T04:59:42;14.57;;;3.50;;
13071;SDS011;6602;58.934;11.166;2023-02-12T05:05:01;16.27;;;2.97;;
13071;SDS011;6602;58.934;11.166;2023-02-12T05:10:21;13.70;;;3.10;;
13071;SDS011;6602;58.934;11.166;2023-02-12T05:15:42;14.63;;;2.43;;
13071;SDS011;6602;58.934;11.166;2023-02-12T05:21:02;19.63;;;3.37;;
13071;SDS011;6602;58.934;11.166;2023-02-12T05:26:23;12.80;;;2.97;;
13071;SDS011;6602;58.934;11.166;2023-02-12T05:31:42;12.00;;;2.60;;
13071;SDS011;6602;58.934;11.166;2023-02-12T05:37:02;15.33;;;2.77;;
13071;SDS011;6602;58.934;11.166;2023-02-12T05:42:23;18.77;;;2.70;;
13071;SDS011;6602;58.934;11.166;2023-02-12T05:47:42;15.23;;;3.73;;
13071;SDS011;6602;58.934;11.166;2023-02-12T05:53:03;14.47;;;2.67;;
13071;SDS011;6602;58.934;11.166;2023-02-12T05:58:22;16.97;;;4.13;;
13071;SDS011;6602;58.934;11.166;2023-02-12T06:03:41;17.10;;;4.00;;
13071;SDS011;6602;58.934;11.166;2023-02-12T06:09:00;19.37;;;3.10;;
13071;SDS011;6602;58.934;11.166;2023-02-12T06:14:21;16.50;;;3.40;;
13071;SDS011;6602;58.934;11.166;2023-02-12T06:19:40;24.00;;;4.33;;
13071;SDS011;6602;58.934;11.166;2023-02-12T06:25:00;18.77;;;3.97;;
13071;SDS011;6602;58.934;11.166;2023-02-12T06:30:22;16.63;;;4.20;;
13071;SDS011;6602;58.934;11.166;2023-02-12T06:35:43;13.93;;;3.43;;
13071;SDS011;6602;58.934;11.166;2023-02-12T06:41:03;16.60;;;3.57;;
13071;SDS011;6602;58.934;11.166;2023-02-12T06:46:23;19.63;;;3.40;;
13071;SDS011;6602;58.934;11.166;2023-02-12T06:51:44;18.80;;;4.00;;
13071;SDS011;6602;58.934;11.166;2023-02-12T06:57:04;26.70;;;3.90;;
13071;SDS011;6602;58.934;11.166;2023-02-12T07:02:25;17.10;;;3.73;;
13071;SDS011;6602;58.934;11.166;2023-02-12T07:07:44;16.13;;;3.03;;
13071;SDS011;6602;58.934;11.166;2023-02-12T07:13:04;14.90;;;3.67;;
13071;SDS011;6602;58.934;11.166;2023-02-12T07:18:23;11.00;;;3.17;;
13071;SDS011;6602;58.934;11.166;2023-02-12T07:23:45;14.37;;;2.90;;
13071;SDS011;6602;58.934;11.166;2023-02-12T07:29:07;16.47;;;3.07;;
13071;SDS011;6602;58.934;11.166;2023-02-12T07:34:26;14.77;;;2.73;;
13071;SDS011;6602;58.934;11.166;2023-02-12T07:39:46;16.00;;;3.70;;
13071;SDS011;6602;58.934;11.166;2023-02-12T07:45:06;18.10;;;3.83;;
13071;SDS011;6602;58.934;11.166;2023-02-12T07:50:27;11.67;;;3.20;;
13071;SDS011;6602;58.934;11.166;2023-02-12T07:55:46;21.37;;;5.17;;
13071;SDS011;6602;58.934;11.166;2023-02-12T08:01:10;15.73;;;4.37;;
13071;SDS011;6602;58.934;11.166;2023-02-12T08:06:35;14.50;;;3.53;;
13071;SDS011;6602;58.934;11.166;2023-02-12T08:12:00;14.83;;;3.60;;
13071;SDS011;6602;58.934;11.166;2023-02-12T08:17:19;16.07;;;3.37;;
13071;SDS011;6602;58.934;11.166;2023-02-12T08:22:39;14.20;;;3.47;;
13071;SDS011;6602;58.934;11.166;2023-02-12T08:27:59;21.70;;;5.00;;
13071;SDS011;6602;58.934;11.166;2023-02-12T08:33:19;12.77;;;3.70;;
13071;SDS011;6602;58.934;11.166;2023-02-12T08:38:40;14.80;;;4.53;;
13071;SDS011;6602;58.934;11.166;2023-02-12T08:44:04;12.77;;;3.30;;
13071;SDS011;6602;58.934;11.166;2023-02-12T08:49:27;13.87;;;3.93;;
13071;SDS011;6602;58.934;11.166;2023-02-12T08:54:48;14.53;;;4.80;;
13071;SDS011;6602;58.934;11.166;2023-02-12T09:00:14;12.77;;;3.00;;
13071;SDS011;6602;58.934;11.166;2023-02-12T09:05:37;11.47;;;2.57;;
13071;SDS011;6602;58.934;11.166;2023-02-12T09:10:57;13.63;;;2.60;;
13071;SDS011;6602;58.934;11.166;2023-02-12T09:16:23;10.33;;;2.43;;
13071;SDS011;6602;58.934;11.166;2023-02-12T09:21:49;14.67;;;3.30;;
13071;SDS011;6602;58.934;11.166;2023-02-12T09:27:10;14.93;;;4.53;;
13071;SDS011;6602;58.934;11.166;2023-02-12T09:32:29;14.57;;;4.37;;
13071;SDS011;6602;58.934;11.166;2023-02-12T09:37:49;20.00;;;3.10;;
13071;SDS011;6602;58.934;11.166;2023-02-12T09:55:03;7.20;;;2.33;;
13071;SDS011;6602;58.934;11.166;2023-02-12T10:00:25;12.30;;;1.63;;
13071;SDS011;6602;58.934;11.166;2023-02-12T10:05:50;8.37;;;1.27;;
13071;SDS011;6602;58.934;11.166;2023-02-12T10:17:16;6.80;;;1.43;;
13071;SDS011;6602;58.934;11.166;2023-02-12T10:23:46;9.83;;;1.57;;
13071;SDS011;6602;58.934;11.166;2023-02-12T10:28:40;13.17;;;1.37;;
13071;SDS011;6602;58.934;11.166;2023-02-12T10:34:14;12.40;;;2.00;;
13071;SDS011;6602;58.934;11.166;2023-02-12T10:39:40;13.40;;;2.50;;
13071;SDS011;6602;58.934;11.166;2023-02-12T10:45:18;16.63;;;1.70;;
13071;SDS011;6602;58.934;11.166;2023-02-12T10:56:18;11.10;;;1.47;;
13071;SDS011;6602;58.934;11.166;2023-02-12T11:01:45;16.40;;;1.27;;
13071;SDS011;6602;58.934;11.166;2023-02-12T11:07:06;11.10;;;2.33;;
13071;SDS011;6602;58.934;11.166;2023-02-12T11:12:32;6.90;;;2.03;;
13071;SDS011;6602;58.934;11.166;2023-02-12T11:18:26;6.73;;;1.70;;
13071;SDS011;6602;58.934;11.166;2023-02-12T11:23:50;9.53;;;1.93;;
13071;SDS011;6602;58.934;11.166;2023-02-12T11:29:17;6.90;;;1.77;;
13071;SDS011;6602;58.934;11.166;2023-02-12T11:34:40;14.27;;;1.63;;
13071;SDS011;6602;58.934;11.166;2023-02-12T11:40:00;14.47;;;2.10;;
13071;SDS011;6602;58.934;11.166;2023-02-12T11:45:25;13.57;;;1.50;;
13071;SDS011;6602;58.934;11.166;2023-02-12T11:50:57;14.27;;;1.93;;
13071;SDS011;6602;58.934;11.166;2023-02-12T11:56:20;9.30;;;1.27;;
13071;SDS011;6602;58.934;11.166;2023-02-12T12:01:40;12.23;;;2.27;;
13071;SDS011;6602;58.934;11.166;2023-02-12T12:07:01;17.87;;;1.67;;
13071;SDS011;6602;58.934;11.166;2023-02-12T12:12:58;11.47;;;2.13;;
13071;SDS011;6602;58.934;11.166;2023-02-12T12:18:28;13.27;;;2.53;;
13071;SDS011;6602;58.934;11.166;2023-02-12T12:24:25;15.37;;;1.97;;
13071;SDS011;6602;58.934;11.166;2023-02-12T12:30:00;11.80;;;1.60;;
13071;SDS011;6602;58.934;11.166;2023-02-12T12:35:30;13.43;;;2.33;;
13071;SDS011;6602;58.934;11.166;2023-02-12T12:41:12;13.27;;;2.00;;
13071;SDS011;6602;58.934;11.166;2023-02-12T12:46:43;15.43;;;2.27;;
13071;SDS011;6602;58.934;11.166;2023-02-12T13:20:59;4.60;;;1.30;;
13071;SDS011;6602;58.934;11.166;2023-02-12T13:26:47;13.93;;;2.10;;
13071;SDS011;6602;58.934;11.166;2023-02-12T13:37:43;11.87;;;1.97;;
13071;SDS011;6602;58.934;11.166;2023-02-12T13:48:46;13.87;;;1.90;;
13071;SDS011;6602;58.934;11.166;2023-02-12T13:54:16;11.93;;;2.10;;
13071;SDS011;6602;58.934;11.166;2023-02-12T13:59:54;14.17;;;2.70;;
13071;SDS011;6602;58.934;11.166;2023-02-12T14:05:24;16.80;;;2.07;;
13071;SDS011;6602;58.934;11.166;2023-02-12T14:10:48;13.67;;;2.40;;
13071;SDS011;6602;58.934;11.166;2023-02-12T14:21:53;22.27;;;2.77;;
13071;SDS011;6602;58.934;11.166;2023-02-12T14:43:46;16.70;;;2.57;;
13071;SDS011;6602;58.934;11.166;2023-02-12T14:55:05;20.13;;;3.00;;
13071;SDS011;6602;58.934;11.166;2023-02-12T15:00:38;12.60;;;1.87;;
13071;SDS011;6602;58.934;11.166;2023-02-12T15:17:00;12.23;;;2.20;;
13071;SDS011;6602;58.934;11.166;2023-02-12T15:28:16;13.03;;;1.87;;
13071;SDS011;6602;58.934;11.166;2023-02-12T15:33:47;14.20;;;3.30;;
13071;SDS011;6602;58.934;11.166;2023-02-12T15:39:18;22.93;;;2.63;;
13071;SDS011;6602;58.934;11.166;2023-02-12T15:44:41;14.83;;;3.17;;
13071;SDS011;6602;58.934;11.166;2023-02-12T15:50:06;16.90;;;2.53;;
13071;SDS011;6602;58.934;11.166;2023-02-12T15:55:32;10.53;;;2.00;;
13071;SDS011;6602;58.934;11.166;2023-02-12T16:01:00;16.70;;;2.67;;
13071;SDS011;6602;58.934;11.166;2023-02-12T16:06:22;16.10;;;2.27;;
13071;SDS011;6602;58.934;11.166;2023-02-12T16:11:43;11.60;;;2.57;;
13071;SDS011;6602;58.934;11.166;2023-02-12T16:17:19;11.53;;;1.73;;
13071;SDS011;6602;58.934;11.166;2023-02-12T16:22:43;9.93;;;1.70;;
13071;SDS011;6602;58.934;11.166;2023-02-12T16:28:16;15.53;;;1.90;;
13071;SDS011;6602;58.934;11.166;2023-02-12T16:33:45;9.67;;;1.80;;
13071;SDS011;6602;58.934;11.166;2023-02-12T16:39:31;18.57;;;2.13;;
13071;SDS011;6602;58.934;11.166;2023-02-12T16:50:54;7.13;;;1.47;;
13071;SDS011;6602;58.934;11.166;2023-02-12T16:56:17;13.87;;;2.00;;
13071;SDS011;6602;58.934;11.166;2023-02-12T17:01:38;13.97;;;2.00;;
13071;SDS011;6602;58.934;11.166;2023-02-12T17:06:59;12.47;;;2.87;;
13071;SDS011;6602;58.934;11.166;2023-02-12T17:12:19;12.37;;;2.00;;
13071;SDS011;6602;58.934;11.166;2023-02-12T17:17:40;15.00;;;3.07;;
13071;SDS011;6602;58.934;11.166;2023-02-12T17:23:01;14.13;;;2.27;;
13071;SDS011;6602;58.934;11.166;2023-02-12T17:28:23;14.43;;;2.00;;
13071;SDS011;6602;58.934;11.166;2023-02-12T17:33:49;14.03;;;2.30;;
13071;SDS011;6602;58.934;11.166;2023-02-12T17:39:14;14.30;;;1.87;;
13071;SDS011;6602;58.934;11.166;2023-02-12T17:44:37;13.60;;;1.90;;
13071;SDS011;6602;58.934;11.166;2023-02-12T17:50:00;14.63;;;1.80;;
13071;SDS011;6602;58.934;11.166;2023-02-12T17:55:25;10.63;;;1.60;;
13071;SDS011;6602;58.934;11.166;2023-02-12T18:00:50;12.20;;;2.37;;
13071;SDS011;6602;58.934;11.166;2023-02-12T18:06:09;8.83;;;1.73;;
13071;SDS011;6602;58.934;11.166;2023-02-12T18:11:32;13.70;;;3.03;;
13071;SDS011;6602;58.934;11.166;2023-02-12T18:16:51;9.37;;;1.87;;
13071;SDS011;6602;58.934;11.166;2023-02-12T18:22:12;12.20;;;1.60;;
13071;SDS011;6602;58.934;11.166;2023-02-12T18:27:33;16.63;;;2.23;;
13071;SDS011;6602;58.934;11.166;2023-02-12T18:32:54;11.27;;;2.00;;
13071;SDS011;6602;58.934;11.166;2023-02-12T18:38:14;10.20;;;1.53;;
13071;SDS011;6602;58.934;11.166;2023-02-12T18:43:35;8.67;;;1.63;;
13071;SDS011;6602;58.934;11.166;2023-02-12T18:48:56;7.50;;;1.40;;
13071;SDS011;6602;58.934;11.166;2023-02-12T18:54:17;10.63;;;1.77;;
13071;SDS011;6602;58.934;11.166;2023-02-12T18:59:40;17.50;;;2.97;;
13071;SDS011;6602;58.934;11.166;2023-02-12T19:05:01;14.53;;;2.20;;
13071;SDS011;6602;58.934;11.166;2023-02-12T19:15:44;9.10;;;1.43;;
13071;SDS011;6602;58.934;11.166;2023-02-12T19:21:09;11.27;;;1.63;;
13071;SDS011;6602;58.934;11.166;2023-02-12T19:26:34;9.83;;;1.60;;
13071;SDS011;6602;58.934;11.166;2023-02-12T19:31:54;11.30;;;1.60;;
13071;SDS011;6602;58.934;11.166;2023-02-12T19:37:13;8.03;;;1.47;;
13071;SDS011;6602;58.934;11.166;2023-02-12T19:42:33;7.60;;;1.37;;
13071;SDS011;6602;58.934;11.166;2023-02-12T19:47:54;8.63;;;1.43;;
13071;SDS011;6602;58.934;11.166;2023-02-12T19:53:14;7.50;;;1.23;;
13071;SDS011;6602;58.934;11.166;2023-02-12T19:58:36;9.37;;;1.50;;
13071;SDS011;6602;58.934;11.166;2023-02-12T20:04:01;9.53;;;1.23;;
13071;SDS011;6602;58.934;11.166;2023-02-12T20:09:22;11.20;;;1.27;;
13071;SDS011;6602;58.934;11.166;2023-02-12T20:14:44;7.00;;;1.40;;
13071;SDS011;6602;58.934;11.166;2023-02-12T20:20:04;7.73;;;1.30;;
13071;SDS011;6602;58.934;11.166;2023-02-12T20:25:27;13.03;;;1.37;;
13071;SDS011;6602;58.934;11.166;2023-02-12T20:30:49;7.73;;;1.20;;
13071;SDS011;6602;58.934;11.166;2023-02-12T20:36:09;12.33;;;1.30;;
13071;SDS011;6602;58.934;11.166;2023-02-12T20:41:30;11.87;;;1.27;;
13071;SDS011;6602;58.934;11.166;2023-02-12T20:46:55;11.20;;;1.40;;
13071;SDS011;6602;58.934;11.166;2023-02-12T20:52:16;8.17;;;1.83;;
13071;SDS011;6602;58.934;11.166;2023-02-12T20:57:36;7.80;;;1.43;;
13071;SDS011;6602;58.934;11.166;2023-02-12T21:02:56;7.93;;;2.40;;
13071;SDS011;6602;58.934;11.166;2023-02-12T21:08:21;9.23;;;1.93;;
13071;SDS011;6602;58.934;11.166;2023-02-12T21:13:41;14.73;;;2.03;;
13071;SDS011;6602;58.934;11.166;2023-02-12T21:19:04;13.33;;;1.90;;
13071;SDS011;6602;58.934;11.166;2023-02-12T21:24:24;9.37;;;1.83;;
13071;SDS011;6602;58.934;11.166;2023-02-12T21:29:44;14.43;;;1.47;;
13071;SDS011;6602;58.934;11.166;2023-02-12T21:35:04;5.83;;;1.43;;
13071;SDS011;6602;58.934;11.166;2023-02-12T21:40:24;11.67;;;1.90;;
13071;SDS011;6602;58.934;11.166;2023-02-12T21:45:51;10.97;;;1.97;;
13071;SDS011;6602;58.934;11.166;2023-02-12T21:51:30;15.37;;;1.90;;
13071;SDS011;6602;58.934;11.166;2023-02-12T21:56:58;6.67;;;2.17;;
13071;SDS011;6602;58.934;11.166;2023-02-12T22:02:18;5.63;;;1.57;;
13071;SDS011;6602;58.934;11.166;2023-02-12T22:07:38;5.73;;;1.20;;
13071;SDS011;6602;58.934;11.166;2023-02-12T22:12:57;7.97;;;1.30;;
13071;SDS011;6602;58.934;11.166;2023-02-12T22:18:20;9.93;;;2.17;;
13071;SDS011;6602;58.934;11.166;2023-02-12T22:23:39;10.60;;;1.63;;
13071;SDS011;6602;58.934;11.166;2023-02-12T22:29:03;12.27;;;1.50;;
13071;SDS011;6602;58.934;11.166;2023-02-12T22:34:28;10.63;;;1.97;;
13071;SDS011;6602;58.934;11.166;2023-02-12T22:39:50;9.17;;;1.20;;
13071;SDS011;6602;58.934;11.166;2023-02-12T22:45:10;8.27;;;1.47;;
13071;SDS011;6602;58.934;11.166;2023-02-12T22:50:30;7.03;;;1.30;;
13071;SDS011;6602;58.934;11.166;2023-02-12T22:55:50;12.63;;;1.53;;
13071;SDS011;6602;58.934;11.166;2023-02-12T23:01:10;7.83;;;1.63;;
13071;SDS011;6602;58.934;11.166;2023-02-12T23:06:32;11.97;;;1.90;;
13071;SDS011;6602;58.934;11.166;2023-02-12T23:11:51;7.60;;;1.03;;
13071;SDS011;6602;58.934;11.166;2023-02-12T23:17:11;5.90;;;1.33;;
13071;SDS011;6602;58.934;11.166;2023-02-12T23:22:32;7.40;;;1.10;;
13071;SDS011;6602;58.934;11.166;2023-02-12T23:27:52;6.00;;;1.30;;
13071;SDS011;6602;58.934;11.166;2023-02-12T23:33:13;4.47;;;1.13;;
13071;SDS011;6602;58.934;11.166;2023-02-12T23:38:35;3.10;;;1.00;;
13071;SDS011;6602;58.934;11.166;2023-02-12T23:43:54;5.43;;;1.30;;
13071;SDS011;6602;58.934;11.166;2023-02-12T23:49:14;11.40;;;2.07;;
13071;SDS011;6602;58.934;11.166;2023-02-12T23:54:33;4.20;;;1.70;;
13071;SDS011;6602;58.934;11.166;2023-02-12T23:59:52;7.10;;;1.23;;
